createdAt,value
2023-03-28T00:00:47.924Z,5.20
2023-03-28T00:03:18.762Z,5.30
2023-03-28T00:05:48.950Z,3.97
2023-03-28T00:08:18.809Z,5.30
2023-03-28T00:10:46.240Z,5.63
2023-03-28T00:13:14.198Z,5.70
2023-03-28T00:15:42.322Z,5.28
2023-03-28T00:18:12.602Z,5.22
2023-03-28T00:20:42.648Z,5.90
2023-03-28T00:23:11.989Z,5.57
2023-03-28T00:25:41.898Z,5.60
2023-03-28T00:28:09.535Z,6.35
2023-03-28T00:30:36.241Z,5.65
2023-03-28T00:33:05.245Z,6.43
2023-03-28T00:35:33.202Z,5.72
2023-03-28T00:37:59.680Z,5.82
2023-03-28T00:40:26.935Z,5.78
2023-03-28T00:42:54.438Z,5.53
2023-03-28T00:45:23.757Z,5.80
2023-03-28T00:48:19.589Z,5.80
2023-03-28T00:50:48.606Z,6.10
2023-03-28T00:53:23.563Z,5.88
2023-03-28T00:55:57.321Z,5.72
2023-03-28T00:58:27.702Z,5.80
2023-03-28T01:00:56.298Z,6.07
2023-03-28T01:03:28.039Z,6.00
2023-03-28T01:05:56.623Z,5.38
2023-03-28T01:08:35.233Z,6.30
2023-03-28T01:11:03.265Z,6.00
2023-03-28T01:13:33.886Z,5.93
2023-03-28T01:16:02.956Z,5.60
2023-03-28T01:18:34.814Z,5.63
2023-03-28T01:21:27.968Z,5.72
2023-03-28T01:24:22.593Z,5.53
2023-03-28T01:26:55.507Z,5.57
2023-03-28T01:29:54.781Z,5.93
2023-03-28T01:32:43.365Z,6.10
2023-03-28T01:35:46.348Z,6.10
2023-03-28T01:38:24.467Z,5.80
2023-03-28T01:41:05.162Z,6.30
2023-03-28T01:43:51.303Z,6.40
2023-03-28T01:46:29.215Z,6.30
2023-03-28T01:49:28.405Z,6.10
2023-03-28T01:52:04.938Z,6.53
2023-03-28T01:55:01.996Z,5.82
2023-03-28T01:57:37.510Z,5.82
2023-03-28T02:00:20.702Z,6.28
2023-03-28T02:03:18.769Z,5.90
2023-03-28T02:05:54.654Z,6.32
2023-03-28T02:08:24.390Z,6.50
2023-03-28T02:11:09.804Z,6.10
2023-03-28T02:13:49.432Z,6.30
2023-03-28T02:16:38.644Z,5.75
2023-03-28T02:19:20.126Z,6.20
2023-03-28T02:22:27.163Z,5.82
2023-03-28T02:24:59.762Z,5.60
2023-03-28T02:27:34.079Z,5.68
2023-03-28T02:30:23.478Z,6.20
2023-03-28T02:32:51.560Z,5.72
2023-03-28T02:35:30.074Z,5.50
2023-03-28T02:38:16.022Z,5.88
2023-03-28T02:41:04.313Z,6.28
2023-03-28T02:44:03.587Z,6.15
2023-03-28T02:46:45.764Z,5.47
2023-03-28T02:49:25.828Z,5.65
2023-03-28T02:52:04.489Z,5.93
2023-03-28T02:54:59.279Z,5.32
2023-03-28T02:57:39.295Z,5.63
2023-03-28T03:00:16.515Z,6.00
2023-03-28T03:02:45.381Z,5.35
2023-03-28T03:05:12.011Z,5.75
2023-03-28T03:07:38.704Z,5.82
2023-03-28T03:10:08.080Z,5.88
2023-03-28T03:12:35.988Z,5.95
2023-03-28T03:15:05.271Z,5.90
2023-03-28T03:17:50.945Z,5.57
2023-03-28T03:20:25.974Z,5.97
2023-03-28T03:22:54.604Z,5.50
2023-03-28T03:25:21.625Z,5.93
2023-03-28T03:28:00.216Z,5.65
2023-03-28T03:30:27.198Z,5.90
2023-03-28T03:33:16.832Z,5.47
2023-03-28T03:35:48.135Z,5.97
2023-03-28T03:38:16.724Z,6.10
2023-03-28T03:40:43.280Z,6.70
2023-03-28T03:43:10.507Z,6.40
2023-03-28T03:45:40.424Z,6.18
2023-03-28T03:48:07.992Z,6.10
2023-03-28T03:50:35.049Z,5.97
2023-03-28T03:53:04.653Z,5.93
2023-03-28T03:55:40.790Z,6.10
2023-03-28T03:58:07.673Z,6.25
2023-03-28T04:00:37.588Z,6.50
2023-03-28T04:03:06.360Z,6.93
2023-03-28T04:05:33.387Z,6.03
2023-03-28T04:08:01.847Z,4.38
2023-03-28T04:10:34.296Z,6.07
2023-03-28T04:13:01.694Z,6.40
2023-03-28T04:15:28.688Z,6.03
2023-03-28T04:18:03.482Z,6.78
2023-03-28T04:20:40.280Z,6.72
2023-03-28T04:23:08.493Z,6.70
2023-03-28T04:25:36.785Z,6.88
2023-03-28T04:28:09.328Z,6.88
2023-03-28T04:30:43.564Z,7.25
2023-03-28T04:33:33.857Z,7.00
2023-03-28T04:36:03.184Z,6.68
2023-03-28T04:38:31.913Z,6.88
2023-03-28T04:41:13.583Z,6.78
2023-03-28T04:43:58.790Z,6.43
2023-03-28T04:46:25.800Z,6.65
2023-03-28T04:48:56.701Z,7.20
2023-03-28T04:51:28.868Z,7.47
2023-03-28T04:53:55.572Z,4.60
2023-03-28T04:56:41.503Z,7.25
2023-03-28T04:59:08.141Z,7.63
2023-03-28T05:01:35.118Z,7.55
2023-03-28T05:04:22.275Z,7.45
2023-03-28T05:06:50.752Z,8.23
2023-03-28T05:09:18.202Z,8.05
2023-03-28T05:11:45.458Z,8.45
2023-03-28T05:14:12.186Z,4.95
2023-03-28T05:16:45.757Z,8.75
2023-03-28T05:19:44.785Z,8.90
2023-03-28T05:22:17.153Z,9.30
2023-03-28T05:24:43.715Z,9.40
2023-03-28T05:27:17.408Z,10.45
2023-03-28T05:29:44.985Z,9.40
2023-03-28T05:32:12.921Z,9.63
2023-03-28T05:34:41.149Z,9.93
2023-03-28T05:37:08.831Z,10.30
2023-03-28T05:39:45.077Z,5.65
2023-03-28T05:42:12.696Z,10.02
2023-03-28T05:44:40.182Z,10.25
2023-03-28T05:47:25.464Z,10.20
2023-03-28T05:49:54.364Z,10.32
2023-03-28T05:52:21.918Z,10.80
2023-03-28T05:54:50.577Z,10.73
2023-03-28T05:59:48.461Z,11.50
2023-03-28T06:02:20.936Z,11.25
2023-03-28T06:04:48.605Z,11.48
2023-03-28T06:07:15.989Z,11.45
2023-03-28T06:09:43.637Z,10.10
2023-03-28T06:12:11.092Z,5.57
2023-03-28T06:14:42.942Z,5.10
2023-03-28T06:17:20.337Z,5.25
2023-03-28T06:19:51.277Z,10.32
2023-03-28T06:22:20.039Z,11.32
2023-03-28T06:24:52.789Z,11.23
2023-03-28T06:27:25.866Z,10.98
2023-03-28T06:29:52.714Z,10.70
2023-03-28T06:32:19.363Z,11.00
2023-03-28T06:34:46.866Z,12.25
2023-03-28T06:37:13.771Z,11.45
2023-03-28T06:40:01.261Z,11.77
2023-03-28T06:42:27.756Z,11.60
2023-03-28T06:45:00.626Z,6.25
2023-03-28T06:47:41.943Z,5.55
2023-03-28T06:50:09.316Z,11.68
2023-03-28T06:52:49.239Z,12.13
2023-03-28T06:55:16.368Z,12.50
2023-03-28T06:57:42.993Z,12.82
2023-03-28T07:00:20.611Z,12.18
2023-03-28T07:03:13.430Z,12.80
2023-03-28T07:05:41.198Z,12.95
2023-03-28T07:08:09.137Z,12.35
2023-03-28T07:10:40.410Z,12.98
2023-03-28T07:13:07.868Z,12.48
2023-03-28T07:15:36.595Z,12.63
2023-03-28T07:18:05.385Z,12.73
2023-03-28T07:20:32.287Z,13.27
2023-03-28T07:22:59.646Z,12.02
2023-03-28T07:25:26.561Z,12.55
2023-03-28T07:27:53.240Z,12.23
2023-03-28T07:30:19.871Z,12.63
2023-03-28T07:32:55.519Z,12.18
2023-03-28T07:35:26.425Z,12.20
2023-03-28T07:37:53.896Z,11.55
2023-03-28T07:40:32.921Z,11.88
2023-03-28T07:42:59.694Z,12.65
2023-03-28T07:45:26.185Z,12.10
2023-03-28T07:47:52.820Z,11.27
2023-03-28T07:50:20.070Z,11.60
2023-03-28T07:52:47.326Z,10.75
2023-03-28T07:55:14.781Z,10.60
2023-03-28T07:57:45.989Z,9.70
2023-03-28T08:00:24.170Z,10.20
2023-03-28T08:03:11.844Z,9.52
2023-03-28T08:05:39.336Z,9.30
2023-03-28T08:08:07.976Z,9.40
2023-03-28T08:10:34.806Z,8.80
2023-03-28T08:13:03.782Z,8.35
2023-03-28T08:15:30.838Z,8.45
2023-03-28T08:17:58.008Z,8.20
2023-03-28T08:20:24.545Z,8.13
2023-03-28T08:23:02.892Z,7.75
2023-03-28T08:25:47.975Z,7.93
2023-03-28T08:28:17.955Z,7.78
2023-03-28T08:30:44.570Z,7.28
2023-03-28T08:33:11.564Z,7.60
2023-03-28T08:35:38.265Z,7.75
2023-03-28T08:38:13.250Z,7.35
2023-03-28T08:40:50.336Z,7.45
2023-03-28T08:43:49.969Z,6.88
2023-03-28T08:46:19.058Z,6.68
2023-03-28T08:48:47.193Z,6.65
2023-03-28T08:51:37.259Z,6.43
2023-03-28T08:54:22.387Z,6.28
2023-03-28T08:56:55.613Z,6.00
2023-03-28T08:59:29.437Z,6.00
2023-03-28T09:01:56.361Z,5.63
2023-03-28T09:04:35.316Z,5.43
2023-03-28T09:07:39.580Z,5.78
2023-03-28T09:10:24.813Z,5.43
2023-03-28T09:13:23.549Z,5.10
2023-03-28T09:16:18.919Z,5.32
2023-03-28T09:19:01.465Z,4.90
2023-03-28T09:22:08.838Z,5.22
2023-03-28T09:27:37.560Z,4.50
2023-03-28T09:30:19.108Z,4.68
2023-03-28T09:32:45.793Z,4.60
2023-03-28T09:35:19.301Z,4.78
2023-03-28T09:37:53.155Z,4.72
2023-03-28T09:40:22.989Z,4.93
2023-03-28T09:43:24.026Z,4.97
2023-03-28T09:46:38.668Z,5.28
2023-03-28T09:49:24.638Z,5.38
2023-03-28T09:51:58.708Z,5.43
2023-03-28T09:54:30.871Z,5.70
2023-03-28T09:57:03.633Z,5.55
2023-03-28T09:59:47.889Z,5.35
2023-03-28T10:05:30.909Z,5.40
2023-03-28T10:08:06.196Z,5.28
2023-03-28T10:11:06.871Z,4.68
2023-03-28T10:13:40.513Z,4.82
2023-03-28T10:16:10.319Z,4.88
2023-03-28T10:18:57.009Z,4.90
2023-03-28T10:21:32.261Z,4.55
2023-03-28T10:24:22.024Z,4.70
2023-03-28T10:26:58.306Z,4.70
2023-03-28T10:29:27.014Z,4.35
2023-03-28T10:31:55.008Z,4.53
2023-03-28T10:34:30.394Z,4.32
2023-03-28T10:37:02.626Z,4.43
2023-03-28T10:40:01.278Z,4.47
2023-03-28T10:42:51.058Z,4.70
2023-03-28T10:45:46.749Z,4.47
2023-03-28T10:48:29.351Z,4.35
2023-03-28T10:51:08.174Z,4.40
2023-03-28T10:53:55.545Z,4.80
2023-03-28T10:56:28.729Z,4.55
2023-03-28T10:58:58.409Z,4.47
2023-03-28T11:01:41.141Z,4.72
2023-03-28T11:04:15.028Z,4.88
2023-03-28T11:06:47.827Z,4.65
2023-03-28T11:09:23.393Z,4.90
2023-03-28T11:12:27.899Z,4.95
2023-03-28T11:15:14.566Z,4.72
2023-03-28T11:18:08.002Z,4.35
2023-03-28T11:20:53.273Z,4.35
2023-03-28T11:23:45.661Z,4.30
2023-03-28T11:27:16.297Z,4.60
2023-03-28T11:30:15.744Z,4.20
2023-03-28T11:33:18.574Z,4.22
2023-03-28T11:36:03.750Z,4.55
2023-03-28T11:38:34.148Z,4.45
2023-03-28T11:41:18.098Z,4.40
2023-03-28T11:44:39.066Z,4.78
2023-03-28T11:47:12.228Z,4.80
2023-03-28T11:49:52.555Z,4.60
2023-03-28T11:52:53.494Z,4.63
2023-03-28T11:55:26.757Z,4.80
2023-03-28T11:58:02.295Z,4.95
2023-03-28T12:00:48.536Z,4.90
2023-03-28T12:03:30.782Z,4.90
2023-03-28T12:06:05.266Z,4.93
2023-03-28T12:09:06.223Z,4.90
2023-03-28T12:14:21.233Z,4.80
2023-03-28T12:16:53.145Z,4.75
2023-03-28T12:19:36.837Z,5.07
2023-03-28T12:22:34.362Z,4.53
2023-03-28T12:25:21.524Z,5.00
2023-03-28T12:27:57.267Z,4.85
2023-03-28T12:30:37.134Z,4.55
2023-03-28T12:33:13.759Z,4.90
2023-03-28T12:35:58.781Z,4.45
2023-03-28T12:38:33.010Z,4.75
2023-03-28T12:41:17.307Z,4.50
2023-03-28T12:43:51.932Z,4.35
2023-03-28T12:46:53.936Z,4.43
2023-03-28T12:49:36.693Z,4.63
2023-03-28T12:52:14.344Z,4.70
2023-03-28T12:54:57.739Z,4.50
2023-03-28T12:57:44.842Z,4.40
2023-03-28T13:00:39.795Z,4.40
2023-03-28T13:03:54.165Z,5.00
2023-03-28T13:06:46.315Z,4.72
2023-03-28T13:09:20.748Z,4.80
2023-03-28T13:12:03.137Z,4.95
2023-03-28T13:14:37.917Z,4.72
2023-03-28T13:17:17.621Z,4.68
2023-03-28T13:19:47.756Z,4.50
2023-03-28T13:22:33.454Z,4.72
2023-03-28T13:25:21.824Z,4.60
2023-03-28T13:27:50.657Z,4.80
2023-03-28T13:30:32.677Z,4.78
2023-03-28T13:35:36.650Z,4.32
2023-03-28T13:38:23.920Z,4.40
2023-03-28T13:41:00.533Z,4.60
2023-03-28T13:43:36.825Z,4.45
2023-03-28T13:46:11.471Z,4.70
2023-03-28T13:48:50.792Z,4.32
2023-03-28T13:51:24.327Z,4.75
2023-03-28T13:53:50.891Z,4.72
2023-03-28T13:56:25.335Z,4.70
2023-03-28T13:58:55.378Z,4.97
2023-03-28T14:01:25.750Z,4.35
2023-03-28T14:03:54.356Z,4.63
2023-03-28T14:06:26.019Z,4.75
2023-03-28T14:08:55.261Z,4.85
2023-03-28T14:11:24.883Z,5.00
2023-03-28T14:14:11.773Z,4.30
2023-03-28T14:16:39.249Z,4.65
2023-03-28T14:19:06.755Z,4.65
2023-03-28T14:21:33.485Z,4.88
2023-03-28T14:24:03.930Z,4.95
2023-03-28T14:26:34.170Z,4.82
2023-03-28T14:29:05.072Z,4.85
2023-03-28T14:31:34.827Z,4.60
2023-03-28T14:34:15.977Z,4.65
2023-03-28T14:37:06.521Z,4.22
2023-03-28T14:39:38.874Z,4.47
2023-03-28T14:42:08.440Z,4.28
2023-03-28T14:44:39.384Z,4.13
2023-03-28T14:47:07.813Z,4.10
2023-03-28T14:49:36.737Z,4.28
2023-03-28T14:52:03.791Z,4.30
2023-03-28T14:54:42.134Z,4.55
2023-03-28T14:57:15.442Z,4.18
2023-03-28T14:59:45.503Z,4.20
2023-03-28T15:02:31.752Z,4.18
2023-03-28T15:05:07.657Z,4.45
2023-03-28T15:07:36.523Z,4.25
2023-03-28T15:10:08.084Z,4.13
2023-03-28T15:12:42.893Z,3.83
2023-03-28T15:15:31.861Z,4.15
2023-03-28T15:18:01.303Z,4.30
2023-03-28T15:20:32.406Z,4.00
2023-03-28T15:23:02.169Z,3.90
2023-03-28T15:25:30.597Z,3.92
2023-03-28T15:28:01.146Z,3.97
2023-03-28T15:30:32.669Z,4.43
2023-03-28T15:33:05.559Z,4.10
2023-03-28T15:35:36.705Z,4.30
2023-03-28T15:38:12.587Z,4.20
2023-03-28T15:40:46.033Z,4.20
2023-03-28T15:43:37.361Z,4.07
2023-03-28T15:46:09.938Z,4.20
2023-03-28T15:48:37.362Z,4.25
2023-03-28T15:51:07.804Z,4.50
2023-03-28T15:53:37.347Z,4.38
2023-03-28T15:56:21.908Z,4.47
2023-03-28T15:58:48.726Z,4.60
2023-03-28T16:01:23.802Z,5.00
2023-03-28T16:03:51.681Z,5.00
2023-03-28T16:06:32.380Z,5.20
2023-03-28T16:09:29.054Z,5.30
2023-03-28T16:12:04.254Z,4.90
2023-03-28T16:14:35.342Z,4.78
2023-03-28T16:17:28.806Z,5.22
2023-03-28T16:20:19.775Z,5.18
2023-03-28T16:22:47.050Z,4.90
2023-03-28T16:25:13.990Z,5.38
2023-03-28T16:27:42.465Z,5.50
2023-03-28T16:30:31.455Z,5.57
2023-03-28T16:32:58.231Z,5.35
2023-03-28T16:35:27.078Z,5.85
2023-03-28T16:37:54.684Z,5.22
2023-03-28T16:40:22.209Z,5.50
2023-03-28T16:42:48.821Z,5.05
2023-03-28T16:45:16.093Z,5.47
2023-03-28T16:47:42.666Z,5.68
2023-03-28T16:50:10.021Z,5.53
2023-03-28T16:52:40.353Z,5.70
2023-03-28T16:55:12.332Z,5.65
2023-03-28T16:57:38.884Z,5.47
2023-03-28T17:00:08.872Z,5.55
2023-03-28T17:02:35.511Z,5.90
2023-03-28T17:05:02.434Z,6.13
2023-03-28T17:07:29.020Z,5.93
2023-03-28T17:09:55.542Z,5.20
2023-03-28T17:12:23.906Z,5.00
2023-03-28T17:14:51.260Z,4.65
2023-03-28T17:17:21.190Z,4.30
2023-03-28T17:19:47.764Z,4.10
2023-03-28T17:22:14.500Z,4.60
2023-03-28T17:24:41.102Z,4.38
2023-03-28T17:27:07.648Z,4.50
2023-03-28T17:29:34.230Z,4.30
2023-03-28T17:32:02.817Z,4.03
2023-03-28T17:34:31.981Z,4.10
2023-03-28T17:37:00.218Z,4.10
2023-03-28T17:39:28.423Z,4.40
2023-03-28T17:41:54.942Z,4.10
2023-03-28T17:44:21.610Z,4.38
2023-03-28T17:46:48.308Z,4.63
2023-03-28T17:49:16.977Z,4.35
2023-03-28T17:51:44.955Z,4.13
2023-03-28T17:54:12.132Z,4.40
2023-03-28T17:56:39.471Z,4.28
2023-03-28T17:59:06.226Z,4.30
2023-03-28T18:01:32.835Z,4.53
2023-03-28T18:03:59.548Z,4.93
2023-03-28T18:06:46.694Z,5.00
2023-03-28T18:09:13.434Z,4.95
2023-03-28T18:11:41.308Z,5.45
2023-03-28T18:14:08.609Z,5.38
2023-03-28T18:16:36.098Z,5.60
2023-03-28T18:19:03.318Z,5.32
2023-03-28T18:21:30.066Z,5.70
2023-03-28T18:23:56.710Z,5.32
2023-03-28T18:26:23.935Z,5.45
2023-03-28T18:28:50.698Z,5.00
2023-03-28T18:31:19.948Z,4.68
2023-03-28T18:33:46.599Z,4.75
2023-03-28T18:36:13.993Z,4.63
2023-03-28T18:38:42.963Z,5.30
2023-03-28T18:41:10.438Z,5.13
2023-03-28T18:43:38.534Z,5.50
2023-03-28T18:46:07.680Z,5.43
2023-03-28T18:48:34.984Z,5.47
2023-03-28T18:51:06.286Z,5.80
2023-03-28T18:53:33.690Z,5.25
2023-03-28T18:56:00.543Z,5.60
2023-03-28T18:58:27.332Z,5.65
2023-03-28T19:00:59.346Z,5.72
2023-03-28T19:03:32.244Z,5.03
2023-03-28T19:06:01.425Z,5.30
2023-03-28T19:08:29.729Z,5.53
2023-03-28T19:10:57.955Z,5.38
2023-03-28T19:13:25.017Z,5.93
2023-03-28T19:16:01.865Z,5.45
2023-03-28T19:18:29.181Z,4.70
2023-03-28T19:20:56.982Z,5.13
2023-03-28T19:23:24.520Z,4.68
2023-03-28T19:25:51.037Z,4.90
2023-03-28T19:28:18.969Z,5.10
2023-03-28T19:30:46.272Z,4.88
2023-03-28T19:33:13.611Z,4.85
2023-03-28T19:35:42.261Z,4.80
2023-03-28T19:38:08.941Z,4.80
2023-03-28T19:40:35.557Z,5.20
2023-03-28T19:43:02.707Z,5.20
2023-03-28T19:45:30.286Z,4.80
2023-03-28T19:47:57.044Z,4.68
2023-03-28T19:50:24.086Z,4.75
2023-03-28T19:52:50.869Z,4.43
2023-03-28T19:55:17.482Z,4.95
2023-03-28T19:57:43.990Z,4.88
2023-03-28T20:00:11.250Z,4.57
2023-03-28T20:02:40.764Z,4.30
2023-03-28T20:05:07.743Z,3.97
2023-03-28T20:07:34.200Z,4.22
2023-03-28T20:10:00.786Z,4.10
2023-03-28T20:12:27.340Z,4.07
2023-03-28T20:14:56.351Z,4.10
2023-03-28T20:17:23.541Z,4.40
2023-03-28T20:19:52.895Z,4.25
2023-03-28T20:22:24.207Z,4.30
2023-03-28T20:24:50.892Z,4.38
2023-03-28T20:27:18.074Z,4.07
2023-03-28T20:29:45.434Z,4.60
2023-03-28T20:32:11.915Z,4.50
2023-03-28T20:34:38.430Z,4.60
2023-03-28T20:37:04.998Z,4.30
2023-03-28T20:39:36.769Z,4.60
2023-03-28T20:42:05.570Z,4.57
2023-03-28T20:44:38.116Z,4.70
2023-03-28T20:47:07.461Z,4.35
2023-03-28T20:49:34.380Z,4.40
2023-03-28T20:52:01.799Z,4.40
2023-03-28T20:54:28.521Z,4.47
2023-03-28T20:56:55.751Z,4.40
2023-03-28T20:59:23.715Z,4.65
2023-03-28T21:01:51.366Z,4.55
2023-03-28T21:04:17.917Z,4.45
2023-03-28T21:06:46.147Z,4.22
2023-03-28T21:09:18.067Z,4.07
2023-03-28T21:11:45.069Z,3.65
2023-03-28T21:14:13.657Z,4.38
2023-03-28T21:16:40.950Z,4.40
2023-03-28T21:19:08.026Z,4.45
2023-03-28T21:21:35.201Z,4.28
2023-03-28T21:24:02.910Z,4.82
2023-03-28T21:26:29.671Z,4.95
2023-03-28T21:28:56.220Z,5.15
2023-03-28T21:31:25.580Z,5.25
2023-03-28T21:33:55.315Z,5.05
2023-03-28T21:36:22.138Z,5.15
2023-03-28T21:38:49.092Z,4.88
2023-03-28T21:41:16.056Z,5.30
2023-03-28T21:43:42.967Z,4.80
2023-03-28T21:46:11.248Z,4.47
2023-03-28T21:48:38.307Z,4.63
2023-03-28T21:51:05.377Z,4.45
2023-03-28T21:53:35.431Z,4.18
2023-03-28T21:56:02.227Z,4.20
2023-03-28T21:58:32.616Z,4.10
2023-03-28T22:01:01.405Z,4.60
2023-03-28T22:03:28.570Z,4.28
2023-03-28T22:05:55.996Z,4.50
2023-03-28T22:08:23.045Z,4.70
2023-03-28T22:10:52.695Z,4.47
2023-03-28T22:13:20.127Z,4.53
2023-03-28T22:15:47.044Z,4.18
2023-03-28T22:18:15.633Z,4.30
2023-03-28T22:20:43.694Z,4.38
2023-03-28T22:23:11.324Z,4.13
2023-03-28T22:25:38.616Z,4.50
2023-03-28T22:28:08.417Z,5.10
2023-03-28T22:30:36.807Z,4.53
2023-03-28T22:33:04.346Z,4.40
2023-03-28T22:35:32.196Z,4.40
2023-03-28T22:37:59.708Z,4.38
2023-03-28T22:40:26.774Z,4.70
2023-03-28T22:42:56.893Z,4.38
2023-03-28T22:45:26.355Z,4.53
2023-03-28T22:47:53.054Z,4.80
2023-03-28T22:50:19.672Z,4.68
2023-03-28T22:52:50.298Z,4.70
2023-03-28T22:55:17.638Z,4.30
2023-03-28T22:57:45.146Z,4.70
2023-03-28T23:00:14.576Z,4.60
2023-03-28T23:02:41.932Z,5.00
2023-03-28T23:05:09.391Z,4.75
2023-03-28T23:07:37.034Z,4.80
2023-03-28T23:10:09.116Z,4.75
2023-03-28T23:12:35.775Z,4.72
2023-03-28T23:15:02.343Z,4.82
2023-03-28T23:17:29.197Z,4.80
2023-03-28T23:19:55.881Z,5.32
2023-03-28T23:22:22.468Z,5.18
2023-03-28T23:24:51.601Z,5.03
2023-03-28T23:27:20.988Z,5.40
2023-03-28T23:29:47.495Z,5.22
2023-03-28T23:32:14.069Z,5.22
2023-03-28T23:34:41.015Z,5.10
2023-03-28T23:37:07.529Z,5.07
2023-03-28T23:39:34.031Z,5.22
2023-03-28T23:42:00.857Z,5.43
2023-03-28T23:44:27.824Z,5.75
2023-03-28T23:46:56.187Z,5.45
2023-03-28T23:49:23.216Z,5.50
2023-03-28T23:51:50.030Z,5.18
2023-03-28T23:54:18.488Z,5.25
2023-03-28T23:56:45.623Z,5.68
2023-03-28T23:59:12.199Z,5.10
